KDRO/DRO METAR and TAF weather

Enter ICAO airport designator
Station Type Date Time Source
KDRO METAR 2018/04/26 14:53 UTC NOAA

KDRO 261453Z AUTO 06005KT 10SM CLR 09/M12 A3015 RMK AO2 SLP164 T00941122 51013


Station Type Date Time Source
KDRO Decoded METAR 2018/04/26 14:53 UTC NOAA

DURANGO-LA PLATA COUNTY AIRPORT , CO, United States (KDRO) 37-09N 107-46W 2035M
Apr 26, 2018 - 10:53 AM EDT / 2018.04.26 1453 UTC
Wind: from the ENE (060 degrees) at 6 MPH (5 KT):0
Visibility: 10 mile(s):0
Sky conditions: clear
Temperature: 48.9 F (9.4 C)
Dew Point: 10.0 F (-12.2 C)
Relative Humidity: 20%
Pressure (altimeter): 30.15 in. Hg (1020 hPa)
Pressure tendency: 0.04 inches (1.3 hPa) higher than three hours ago
ob: KDRO 261453Z AUTO 06005KT 10SM CLR 09/M12 A3015 RMK AO2 SLP164 T00941122 51013
cycle: 15

Station Type Date Time Source
KDRO TAF 2018/04/26 12:22 UTC NOAA

TAF KDRO 261120Z 2612/2712 01004KT P6SM SKC
FM261600 30004KT P6SM SKC
FM262200 26007KT P6SM FEW250
FM270300 34005KT P6SM SKC
FM270500 05005KT P6SM SKC


Example: see airport list